.
WxDataArchive / Data Records for 2012-10-29
2012-10-28 October 2012 2012-10-30

Data Records for Monday, 29 October 2012

Time	Temp	Chill	HIndex	Humid	Dewpt	 Wind 	HiWind	WindDir	Rain 	Barom 
-----	----	-----	------	-----	-----	------	------	-------	-----	----- 
00:00	40.3	40.3	40.3	59	27.1	1	3	315	0.00	30.136 
00:05	40.3	40.3	40.3	59	27.1	1	5	338	0.00	30.136 
00:10	40.2	40.2	40.2	59	27.0	1	3	338	0.00	30.136 
00:15	40.2	40.2	40.2	58	26.6	1	5	0	0.00	30.132 
00:20	40.2	40.2	40.2	58	26.6	1	4	0	0.00	30.132 
00:25	40.2	40.2	40.2	58	26.6	1	3	338	0.00	30.132 
00:30	40.2	40.2	40.2	58	26.6	1	4	338	0.00	30.130 
00:35	40.2	40.2	40.2	57	26.2	1	5	338	0.00	30.130 
00:40	40.2	40.2	40.2	57	26.2	1	3	315	0.00	30.130 
00:45	40.2	40.2	40.2	57	26.2	1	5	315	0.00	30.128 
00:50	40.2	40.2	40.2	57	26.2	2	5	338	0.00	30.128 
00:55	40.2	40.2	40.2	57	26.2	1	5	338	0.00	30.128 
01:00	40.1	40.1	40.1	57	26.1	2	5	315	0.00	30.129 
01:05	40.1	40.1	40.1	57	26.1	1	3	315	0.00	30.129 
01:10	40.1	40.1	40.1	57	26.1	2	7	338	0.00	30.129 
01:15	40.1	40.1	40.1	57	26.1	1	5	0	0.00	30.122 
01:20	39.9	39.9	39.9	57	25.9	2	4	315	0.00	30.122 
01:25	39.9	39.9	39.9	57	25.9	2	6	315	0.00	30.122 
01:30	39.9	39.9	39.9	57	25.9	1	4	338	0.00	30.126 
01:35	39.9	39.9	39.9	56	25.5	1	5	338	0.00	30.126 
01:40	39.9	39.9	39.9	55	25.1	2	9	338	0.00	30.126 
01:45	39.8	39.8	39.8	55	25.0	1	4	338	0.00	30.124 
01:50	39.8	39.8	39.8	55	25.0	2	4	0	0.00	30.124 
01:55	39.9	39.9	39.9	54	24.6	2	6	338	0.00	30.124 
02:00	39.8	39.8	39.8	55	25.0	1	7	315	0.00	30.117 
02:05	39.8	39.8	39.8	54	24.5	0	3	0	0.00	30.117 
02:10	39.6	39.6	39.6	54	24.3	1	4	0	0.00	30.117 
02:15	39.6	39.6	39.6	54	24.3	1	5	0	0.00	30.115 
02:20	39.6	39.6	39.6	54	24.3	1	3	338	0.00	30.115 
02:25	39.6	39.6	39.6	54	24.3	1	4	338	0.00	30.115 
02:30	39.6	39.6	39.6	54	24.3	1	4	315	0.00	30.114 
02:35	39.6	39.6	39.6	54	24.3	1	3	338	0.00	30.114 
02:40	39.6	39.6	39.6	54	24.3	2	7	338	0.00	30.114 
02:45	39.6	39.6	39.6	54	24.3	1	5	338	0.00	30.112 
02:50	39.5	39.5	39.5	54	24.2	1	3	292	0.00	30.112 
02:55	39.5	39.5	39.5	54	24.2	1	5	338	0.00	30.112 
03:00	39.5	39.5	39.5	55	24.7	2	3	338	0.00	30.112 
03:05	39.5	39.5	39.5	55	24.7	1	3	338	0.00	30.112 
03:10	39.3	39.3	39.3	55	24.5	1	4	338	0.00	30.112 
03:15	39.2	39.2	39.2	55	24.4	1	4	338	0.00	30.112 
03:20	39.2	39.2	39.2	56	24.8	1	5	0	0.00	30.112 
03:25	39.1	39.1	39.1	56	24.7	1	5	270	0.00	30.112 
03:30	39.1	39.1	39.1	56	24.7	1	4	338	0.00	30.105 
03:35	38.9	38.9	38.9	56	24.6	1	5	338	0.00	30.105 
03:40	38.9	38.9	38.9	56	24.6	1	4	315	0.00	30.105 
03:45	38.9	38.9	38.9	56	24.6	1	2	338	0.00	30.105 
03:50	38.9	38.9	38.9	57	25.0	1	5	315	0.00	30.105 
03:55	38.9	38.9	38.9	57	25.0	1	4	338	0.00	30.105 
04:00	38.8	38.8	38.8	57	24.9	1	4	315	0.00	30.102 
04:05	38.8	38.8	38.8	57	24.9	1	6	338	0.00	30.102 
04:10	38.8	38.8	38.8	57	24.9	1	4	338	0.00	30.102 
04:15	38.8	38.8	38.8	57	24.9	2	4	338	0.00	30.105 
04:20	38.8	38.8	38.8	57	24.9	2	6	315	0.00	30.105 
04:25	38.8	38.8	38.8	57	24.9	1	3	315	0.00	30.105 
04:30	38.8	38.8	38.8	57	24.9	2	5	338	0.00	30.104 
04:35	38.8	38.8	38.8	58	25.3	1	4	315	0.00	30.104 
04:40	38.6	38.6	38.6	58	25.1	2	5	338	0.00	30.104 
04:45	38.6	38.6	38.6	58	25.1	1	4	338	0.00	30.106 
04:50	38.6	38.6	38.6	58	25.1	1	4	315	0.00	30.106 
04:55	38.6	38.6	38.6	58	25.1	1	6	315	0.00	30.106 
05:00	38.6	38.6	38.6	58	25.1	1	4	315	0.00	30.105 
05:05	38.5	38.5	38.5	58	25.0	1	4	315	0.00	30.105 
05:10	38.5	38.5	38.5	59	25.4	1	4	292	0.00	30.105 
05:15	38.5	38.5	38.5	59	25.4	1	3	315	0.00	30.101 
05:20	38.5	38.5	38.5	59	25.4	1	4	338	0.00	30.101 
05:25	38.3	38.3	38.3	59	25.2	1	5	338	0.00	30.101 
05:30	38.3	38.3	38.3	59	25.2	2	4	338	0.00	30.099 
05:35	38.2	38.2	38.2	60	25.6	1	4	338	0.00	30.099 
05:40	38.2	38.2	38.2	60	25.6	1	4	315	0.00	30.099 
05:45	38.2	38.2	38.2	60	25.6	2	5	315	0.00	30.096 
05:50	38.0	38.0	38.0	60	25.4	2	4	315	0.00	30.096 
05:55	38.0	38.0	38.0	61	25.8	1	4	292	0.00	30.096 
06:00	37.9	37.9	37.9	61	25.7	1	4	338	0.00	30.099 
06:05	37.9	37.9	37.9	61	25.7	1	4	0	0.00	30.099 
06:10	37.9	37.9	37.9	61	25.7	1	4	315	0.00	30.099 
06:15	37.8	37.8	37.8	61	25.6	1	5	315	0.00	30.100 
06:20	37.6	37.6	37.6	62	25.8	1	3	338	0.00	30.100 
06:25	37.6	37.6	37.6	62	25.8	2	8	338	0.00	30.100 
06:30	37.6	37.6	37.6	62	25.8	2	6	0	0.00	30.101 
06:35	37.5	37.5	37.5	62	25.7	1	4	338	0.00	30.101 
06:40	37.3	37.3	37.3	62	25.5	2	5	0	0.00	30.101 
06:45	37.3	37.3	37.3	62	25.5	2	4	338	0.00	30.102 
06:50	37.3	37.3	37.3	63	25.9	1	5	338	0.00	30.102 
06:55	37.2	37.2	37.2	63	25.8	1	6	338	0.00	30.102 
07:00	37.2	37.2	37.2	63	25.8	2	6	338	0.00	30.102 
07:05	37.0	37.0	37.0	63	25.6	2	4	0	0.00	30.102 
07:10	37.0	37.0	37.0	64	26.0	2	6	292	0.00	30.102 
07:15	36.9	36.9	36.9	64	25.9	2	6	315	0.00	30.101 
07:20	36.9	36.9	36.9	64	25.9	2	6	338	0.00	30.101 
07:25	36.9	36.9	36.9	64	25.9	2	5	315	0.00	30.101 
07:30	36.9	36.9	36.9	64	25.9	2	6	315	0.00	30.099 
07:35	36.9	36.9	36.9	64	25.9	1	5	338	0.00	30.099 
07:40	36.8	36.8	36.8	65	26.2	2	5	338	0.00	30.099 
07:45	36.9	36.9	36.9	65	26.3	3	13	338	0.00	30.096 
07:50	36.8	36.8	36.8	65	26.2	1	7	338	0.00	30.096 
07:55	36.8	36.8	36.8	65	26.2	2	7	315	0.00	30.096 
08:00	36.8	36.8	36.8	65	26.2	3	7	338	0.00	30.093 
08:05	36.8	36.8	36.8	65	26.2	2	7	338	0.00	30.093 
08:10	36.8	36.8	36.8	65	26.2	1	6	315	0.00	30.093 
08:15	36.8	36.8	36.8	65	26.2	1	5	338	0.00	30.098 
08:20	36.8	36.8	36.8	65	26.2	2	5	338	0.00	30.098 
08:25	36.8	36.8	36.8	65	26.2	2	6	338	0.00	30.098 
08:30	36.8	36.8	36.8	65	26.2	2	5	315	0.00	30.101 
08:35	36.8	36.8	36.8	65	26.2	2	5	292	0.00	30.101 
08:40	36.9	36.9	36.9	65	26.3	2	5	338	0.00	30.101 
08:45	36.9	36.9	36.9	64	25.9	2	9	338	0.00	30.101 
08:50	36.9	36.9	36.9	64	25.9	2	7	338	0.00	30.101 
08:55	37.0	37.0	37.0	64	26.0	2	7	338	0.00	30.101 
09:00	37.0	37.0	37.0	64	26.0	2	4	338	0.00	30.101 
09:05	37.0	37.0	37.0	64	26.0	2	5	338	0.00	30.101 
09:10	37.2	37.2	37.2	64	26.2	3	7	338	0.00	30.101 
09:15	37.2	37.2	37.2	64	26.2	2	6	338	0.00	30.101 
09:20	37.3	37.3	37.3	64	26.3	2	6	338	0.00	30.101 
09:25	37.3	37.3	37.3	63	25.9	2	4	338	0.00	30.101 
09:30	37.5	37.5	37.5	63	26.1	2	9	338	0.00	30.097 
09:35	37.6	37.6	37.6	63	26.2	2	4	338	0.00	30.097 
09:40	37.8	37.8	37.8	63	26.4	2	5	315	0.00	30.097 
09:45	37.8	37.8	37.8	63	26.4	2	8	338	0.00	30.093 
09:50	37.9	37.9	37.9	62	26.1	3	9	0	0.00	30.093 
09:55	38.0	38.0	38.0	62	26.2	2	5	338	0.00	30.093 
10:00	38.2	38.2	38.2	62	26.3	3	7	315	0.00	30.087 
10:05	38.2	38.2	38.2	62	26.3	3	12	0	0.00	30.087 
10:10	38.3	38.3	38.3	61	26.0	3	10	338	0.00	30.087 
10:15	38.5	38.5	38.5	61	26.2	3	11	0	0.00	30.090 
10:20	38.5	38.5	38.5	61	26.2	3	10	0	0.00	30.090 
10:25	38.5	35.6	38.5	61	26.2	4	7	315	0.00	30.090 
10:30	38.6	38.6	38.6	61	26.3	2	6	338	0.00	30.089 
10:35	38.6	35.7	38.6	61	26.3	4	9	0	0.00	30.089 
10:40	38.8	38.8	38.8	61	26.5	2	7	338	0.00	30.089 
10:45	38.8	38.8	38.8	60	26.1	3	8	315	0.00	30.089 
10:50	38.9	38.9	38.9	60	26.2	3	9	0	0.00	30.089 
10:55	39.1	39.1	39.1	60	26.4	2	9	338	0.00	30.089 
11:00	39.2	36.4	39.2	58	25.7	4	9	338	0.00	30.088 
11:05	39.3	39.3	39.3	59	26.2	2	10	338	0.00	30.088 
11:10	39.5	39.5	39.5	58	26.0	3	7	315	0.00	30.088 
11:15	39.8	39.8	39.8	58	26.2	3	7	338	0.00	30.088 
11:20	39.9	39.9	39.9	57	25.9	2	5	338	0.00	30.088 
11:25	40.2	40.2	40.2	56	25.8	3	7	315	0.00	30.088 
11:30	40.2	40.2	40.2	56	25.8	3	7	338	0.00	30.086 
11:35	40.2	37.5	40.2	54	24.9	4	13	338	0.00	30.086 
11:40	40.2	40.2	40.2	54	24.9	3	10	338	0.00	30.086 
11:45	40.3	37.7	40.3	54	25.0	4	7	338	0.00	30.086 
11:50	40.6	40.6	40.6	54	25.3	3	10	315	0.00	30.086 
11:55	40.6	40.6	40.6	54	25.3	3	7	292	0.00	30.086 
12:00	40.8	40.8	40.8	52	24.6	3	7	292	0.00	30.085 
12:05	40.9	40.9	40.9	52	24.6	2	6	292	0.00	30.085 
12:10	41.1	41.1	41.1	51	24.4	3	5	338	0.00	30.085 
12:15	41.2	41.2	41.2	50	24.0	3	7	338	0.00	30.084 
12:20	41.3	41.3	41.3	50	24.1	3	9	338	0.00	30.084 
12:25	41.5	39.1	41.5	49	23.8	4	8	0	0.00	30.084 
12:30	41.5	41.5	41.5	48	23.3	3	7	338	0.00	30.080 
12:35	41.8	41.8	41.8	47	23.1	2	6	315	0.00	30.080 
12:40	41.8	39.4	41.8	46	22.6	4	10	338	0.00	30.080 
12:45	42.1	42.1	42.1	46	22.8	3	5	338	0.00	30.072 
12:50	42.1	39.7	42.1	46	22.8	4	10	338	0.00	30.072 
12:55	42.2	39.9	42.2	46	22.9	4	7	315	0.00	30.072 
13:00	42.2	42.2	42.2	45	22.4	3	10	338	0.00	30.062 
13:05	42.5	42.5	42.5	45	22.7	3	7	338	0.00	30.062 
13:10	42.6	42.6	42.6	44	22.2	3	7	338	0.00	30.062 
13:15	42.6	40.3	42.6	43	21.7	4	14	338	0.00	30.054 
13:20	42.8	42.8	42.8	44	22.4	3	9	315	0.00	30.054 
13:25	42.9	42.9	42.9	46	23.6	3	6	338	0.00	30.054 
13:30	43.1	43.1	43.1	43	22.1	3	10	315	0.00	30.053 
13:35	42.9	40.7	42.9	42	21.4	4	9	0	0.00	30.053 
13:40	43.1	43.1	43.1	42	21.6	3	7	338	0.00	30.053 
13:45	43.3	43.3	43.3	43	22.3	2	7	315	0.00	30.051 
13:50	43.5	43.5	43.5	41	21.4	3	9	338	0.00	30.051 
13:55	43.5	43.5	43.5	40	20.8	3	7	338	0.00	30.051 
14:00	43.5	43.5	43.5	39	20.2	3	10	315	0.00	30.041 
14:05	43.5	43.5	43.5	39	20.2	3	14	338	0.00	30.041 
14:10	43.6	43.6	43.6	38	19.7	3	11	338	0.00	30.041 
14:15	43.6	41.5	43.6	37	19.1	4	7	338	0.00	30.032 
14:20	43.8	43.8	43.8	37	19.2	3	8	315	0.00	30.032 
14:25	43.9	43.9	43.9	37	19.3	2	4	315	0.00	30.032 
14:30	44.1	44.1	44.1	35	18.2	2	6	315	0.00	30.026 
14:35	44.1	44.1	44.1	34	17.5	3	9	338	0.00	30.026 
14:40	44.2	42.2	44.2	34	17.6	4	7	338	0.00	30.026 
14:45	44.2	44.2	44.2	34	17.6	3	11	338	0.00	30.018 
14:50	44.2	42.2	44.2	32	16.2	4	9	315	0.00	30.018 
14:55	44.3	42.3	44.3	31	15.6	4	10	0	0.00	30.018 
15:00	44.5	42.5	44.5	31	15.8	4	9	338	0.00	30.017 
15:05	44.6	44.6	44.6	30	15.1	3	10	338	0.00	30.017 
15:10	44.8	42.9	44.8	29	14.5	4	8	338	0.00	30.017 
15:15	44.9	44.9	44.9	29	14.6	3	8	315	0.00	30.014 
15:20	45.1	45.1	45.1	28	14.0	3	10	0	0.00	30.014 
15:25	45.1	43.2	45.1	29	14.8	4	9	0	0.00	30.014 
15:30	45.1	45.1	45.1	29	14.8	3	8	338	0.00	30.006 
15:35	45.2	45.2	45.2	29	14.9	2	6	338	0.00	30.006 
15:40	45.4	43.6	45.4	29	15.0	4	12	338	0.00	30.006 
15:45	45.2	43.3	45.2	28	14.1	4	9	338	0.00	30.006 
15:50	45.2	43.3	45.2	27	13.2	4	9	315	0.00	30.006 
15:55	45.2	43.3	45.2	27	13.2	4	12	338	0.00	30.006 
16:00	45.2	45.2	45.2	28	14.1	3	7	338	0.00	29.996 
16:05	45.4	45.4	45.4	29	15.0	2	6	338	0.00	29.996 
16:10	45.5	45.5	45.5	29	15.1	3	7	338	0.00	29.996 
16:15	45.4	43.6	45.4	27	13.4	4	7	0	0.00	29.994 
16:20	45.4	45.4	45.4	28	14.2	2	6	338	0.00	29.994 
16:25	45.4	45.4	45.4	28	14.2	3	9	338	0.00	29.994 
16:30	45.4	45.4	45.4	27	13.4	3	8	338	0.00	29.990 
16:35	45.4	43.6	45.4	28	14.2	4	11	338	0.00	29.990 
16:40	45.4	43.6	45.4	28	14.2	4	10	338	0.00	29.990 
16:45	45.4	45.4	45.4	29	15.0	2	8	315	0.00	29.987 
16:50	45.4	45.4	45.4	28	14.2	3	9	338	0.00	29.987 
16:55	45.4	45.4	45.4	29	15.0	3	10	338	0.00	29.987 
17:00	45.4	43.6	45.4	29	15.0	4	10	338	0.00	29.981 
17:05	45.4	45.4	45.4	29	15.0	2	10	338	0.00	29.981 
17:10	45.4	45.4	45.4	29	15.0	2	6	315	0.00	29.981 
17:15	45.4	45.4	45.4	29	15.0	3	7	338	0.00	29.977 
17:20	45.4	45.4	45.4	29	15.0	3	10	270	0.00	29.977 
17:25	45.4	45.4	45.4	30	15.8	2	6	315	0.00	29.977 
17:30	45.4	45.4	45.4	30	15.8	3	9	315	0.00	29.972 
17:35	45.2	45.2	45.2	32	17.1	2	7	338	0.00	29.972 
17:40	45.1	45.1	45.1	34	18.4	2	5	315	0.00	29.972 
17:45	44.9	44.9	44.9	35	18.9	2	9	315	0.00	29.961 
17:50	44.9	44.9	44.9	36	19.6	2	5	315	0.00	29.961 
17:55	44.8	44.8	44.8	35	18.8	3	10	338	0.00	29.961 
18:00	44.8	44.8	44.8	36	19.5	3	9	338	0.00	29.957 
18:05	44.6	44.6	44.6	37	20.0	2	5	338	0.00	29.957 
18:10	44.6	44.6	44.6	37	20.0	3	9	338	0.00	29.957 
18:15	44.6	44.6	44.6	38	20.6	2	10	338	0.00	29.956 
18:20	44.5	44.5	44.5	38	20.5	2	6	338	0.00	29.956 
18:25	44.5	44.5	44.5	38	20.5	3	6	292	0.00	29.956 
18:30	44.5	44.5	44.5	38	20.5	3	7	338	0.00	29.948 
18:35	44.5	44.5	44.5	38	20.5	3	6	338	0.00	29.948 
18:40	44.5	44.5	44.5	39	21.1	3	9	338	0.00	29.948 
18:45	44.3	44.3	44.3	39	20.9	2	7	338	0.00	29.946 
18:50	44.5	44.5	44.5	39	21.1	3	6	338	0.00	29.946 
18:55	44.3	44.3	44.3	39	20.9	2	6	315	0.00	29.946 
19:00	44.3	44.3	44.3	39	20.9	3	10	315	0.00	29.944 
19:05	44.3	44.3	44.3	39	20.9	3	6	338	0.00	29.944 
19:10	44.3	44.3	44.3	39	20.9	3	10	315	0.00	29.944 
19:15	44.5	44.5	44.5	39	21.1	3	9	292	0.00	29.928 
19:20	44.3	44.3	44.3	39	20.9	2	6	315	0.00	29.928 
19:25	44.5	44.5	44.5	38	20.5	3	9	315	0.00	29.928 
19:30	44.5	44.5	44.5	39	21.1	3	7	315	0.00	29.924 
19:35	44.3	44.3	44.3	39	20.9	2	10	315	0.00	29.924 
19:40	44.3	44.3	44.3	37	19.7	3	12	315	0.00	29.924 
19:45	44.3	44.3	44.3	37	19.7	3	6	338	0.00	29.917 
19:50	44.3	44.3	44.3	37	19.7	2	11	338	0.00	29.917 
19:55	44.3	44.3	44.3	36	19.0	2	6	315	0.00	29.917 
20:00	44.3	42.3	44.3	36	19.0	4	7	338	0.00	29.914 
20:05	44.3	44.3	44.3	37	19.7	3	7	315	0.00	29.914 
20:10	44.3	42.3	44.3	37	19.7	4	10	315	0.00	29.914 
20:15	44.3	42.3	44.3	36	19.0	4	10	315	0.00	29.902 
20:20	44.3	42.3	44.3	35	18.4	4	9	338	0.00	29.902 
20:25	44.3	41.5	44.3	33	17.0	5	12	338	0.00	29.902 
20:30	44.5	42.5	44.5	33	17.2	4	10	338	0.00	29.897 
20:35	44.3	44.3	44.3	35	18.4	3	7	338	0.00	29.897 
20:40	44.3	42.3	44.3	36	19.0	4	10	338	0.00	29.897 
20:45	44.2	42.2	44.2	36	19.0	4	13	338	0.00	29.894 
20:50	44.2	42.2	44.2	35	18.3	4	12	315	0.00	29.894 
20:55	44.2	44.2	44.2	35	18.3	3	9	338	0.00	29.894 
21:00	44.1	44.1	44.1	35	18.2	3	14	0	0.00	29.885 
21:05	44.1	44.1	44.1	35	18.2	3	9	338	0.00	29.885 
21:10	44.1	42.1	44.1	36	18.9	4	7	0	0.00	29.885 
21:15	43.9	43.9	43.9	37	19.3	3	7	338	0.00	29.879 
21:20	43.8	43.8	43.8	37	19.2	2	5	338	0.00	29.879 
21:25	43.8	41.7	43.8	36	18.6	4	11	338	0.00	29.879 
21:30	43.8	43.8	43.8	36	18.6	2	6	338	0.00	29.869 
21:35	43.6	41.5	43.6	37	19.1	4	11	338	0.00	29.869 
21:40	43.6	41.5	43.6	38	19.7	4	10	338	0.00	29.869 
21:45	43.5	43.5	43.5	38	19.6	3	7	315	0.00	29.866 
21:50	43.3	43.3	43.3	38	19.4	3	12	338	0.00	29.866 
21:55	43.3	40.3	43.3	37	18.8	5	16	338	0.00	29.866 
22:00	43.3	43.3	43.3	38	19.4	3	7	315	0.00	29.861 
22:05	43.2	41.0	43.2	38	19.3	4	11	292	0.00	29.861 
22:10	43.2	43.2	43.2	38	19.3	3	7	315	0.00	29.861 
22:15	43.1	40.9	43.1	39	19.8	4	9	315	0.00	29.850 
22:20	42.9	42.9	42.9	39	19.7	3	7	338	0.00	29.850 
22:25	42.9	39.9	42.9	39	19.7	5	15	338	0.00	29.850 
22:30	42.9	40.7	42.9	39	19.7	4	12	338	0.00	29.842 
22:35	42.8	40.6	42.8	39	19.6	4	10	338	0.00	29.842 
22:40	42.6	40.3	42.6	40	20.0	4	12	338	0.00	29.842 
22:45	42.5	39.4	42.5	41	20.5	5	12	338	0.00	29.835 
22:50	42.3	42.3	42.3	41	20.3	3	9	0	0.00	29.835 
22:55	42.2	42.2	42.2	42	20.8	2	7	338	0.00	29.835 
23:00	42.1	42.1	42.1	43	21.2	3	12	315	0.00	29.827 
23:05	42.1	39.7	42.1	43	21.2	4	11	315	0.00	29.827 
23:10	41.9	39.5	41.9	43	21.1	4	13	338	0.00	29.827 
23:15	41.9	41.9	41.9	43	21.1	3	7	0	0.00	29.817 
23:20	41.8	39.4	41.8	43	21.0	4	12	0	0.00	29.817 
23:25	41.8	41.8	41.8	44	21.5	3	9	315	0.00	29.817 
23:30	41.6	41.6	41.6	44	21.3	3	10	338	0.00	29.808 
23:35	41.6	41.6	41.6	44	21.3	3	11	338	0.00	29.808 
23:40	41.6	38.4	41.6	43	20.8	5	14	338	0.00	29.808 
23:45	41.6	39.2	41.6	44	21.3	4	10	292	0.00	29.792 
23:50	41.5	41.5	41.5	44	21.2	3	12	338	0.00	29.792 
23:55	41.5	41.5	41.5	44	21.2	3	10	315	0.00	29.792 

CoCoRaHS
IN-AL-39
A2 Web Hosting
Creative Commons License
GoDaddy
search engine by freefind advanced

loaded 2018-11-16 01:09:27 • last modified 2010-11-18 10:43:29
Privacy PolicyDisclaimer
• wx.awcolley.com is powered by PmWiki v.2002016 •
• all content (unless otherwise noted) © 2018 A W Colley